sensor_id;sensor_type;location;lat;lon;timestamp;P1;durP1;ratioP1;P2;durP2;ratioP2
4317;SDS011;2172;53.576;9.934;2022-07-30T00:01:30;6.30;;;4.50;;
4317;SDS011;2172;53.576;9.934;2022-07-30T00:03:58;11.90;;;6.47;;
4317;SDS011;2172;53.576;9.934;2022-07-30T00:06:26;6.73;;;4.63;;
4317;SDS011;2172;53.576;9.934;2022-07-30T00:08:53;6.43;;;4.67;;
4317;SDS011;2172;53.576;9.934;2022-07-30T00:11:21;9.27;;;4.40;;
4317;SDS011;2172;53.576;9.934;2022-07-30T00:13:48;9.23;;;5.20;;
4317;SDS011;2172;53.576;9.934;2022-07-30T00:16:16;6.90;;;4.63;;
4317;SDS011;2172;53.576;9.934;2022-07-30T00:18:44;7.80;;;4.80;;
4317;SDS011;2172;53.576;9.934;2022-07-30T00:21:12;6.23;;;4.27;;
4317;SDS011;2172;53.576;9.934;2022-07-30T00:23:39;7.80;;;4.33;;
4317;SDS011;2172;53.576;9.934;2022-07-30T00:26:07;5.80;;;4.20;;
4317;SDS011;2172;53.576;9.934;2022-07-30T00:28:34;8.83;;;5.00;;
4317;SDS011;2172;53.576;9.934;2022-07-30T00:31:02;5.23;;;4.60;;
4317;SDS011;2172;53.576;9.934;2022-07-30T00:33:29;11.77;;;4.50;;
4317;SDS011;2172;53.576;9.934;2022-07-30T00:35:58;5.10;;;4.60;;
4317;SDS011;2172;53.576;9.934;2022-07-30T00:38:26;6.43;;;4.83;;
4317;SDS011;2172;53.576;9.934;2022-07-30T00:40:53;8.03;;;4.80;;
4317;SDS011;2172;53.576;9.934;2022-07-30T00:43:22;8.00;;;4.70;;
4317;SDS011;2172;53.576;9.934;2022-07-30T00:45:49;5.47;;;4.67;;
4317;SDS011;2172;53.576;9.934;2022-07-30T00:48:17;7.60;;;5.00;;
4317;SDS011;2172;53.576;9.934;2022-07-30T00:50:44;5.17;;;4.67;;
4317;SDS011;2172;53.576;9.934;2022-07-30T00:53:13;7.23;;;5.13;;
4317;SDS011;2172;53.576;9.934;2022-07-30T00:55:41;9.00;;;4.97;;
4317;SDS011;2172;53.576;9.934;2022-07-30T00:58:08;6.60;;;4.50;;
4317;SDS011;2172;53.576;9.934;2022-07-30T01:00:36;7.60;;;4.93;;
4317;SDS011;2172;53.576;9.934;2022-07-30T01:03:03;11.83;;;5.10;;
4317;SDS011;2172;53.576;9.934;2022-07-30T01:05:31;8.10;;;5.20;;
4317;SDS011;2172;53.576;9.934;2022-07-30T01:07:59;5.70;;;4.63;;
4317;SDS011;2172;53.576;9.934;2022-07-30T01:10:27;6.00;;;4.50;;
4317;SDS011;2172;53.576;9.934;2022-07-30T01:12:55;14.53;;;5.23;;
4317;SDS011;2172;53.576;9.934;2022-07-30T01:15:23;7.83;;;5.10;;
4317;SDS011;2172;53.576;9.934;2022-07-30T01:17:51;7.83;;;5.30;;
4317;SDS011;2172;53.576;9.934;2022-07-30T01:20:22;6.60;;;4.27;;
4317;SDS011;2172;53.576;9.934;2022-07-30T01:22:51;7.50;;;4.70;;
4317;SDS011;2172;53.576;9.934;2022-07-30T01:25:26;6.30;;;5.00;;
4317;SDS011;2172;53.576;9.934;2022-07-30T01:28:12;10.00;;;4.87;;
4317;SDS011;2172;53.576;9.934;2022-07-30T01:30:41;8.30;;;5.10;;
4317;SDS011;2172;53.576;9.934;2022-07-30T01:33:10;8.70;;;5.40;;
4317;SDS011;2172;53.576;9.934;2022-07-30T01:35:40;8.73;;;5.13;;
4317;SDS011;2172;53.576;9.934;2022-07-30T01:38:08;5.80;;;4.77;;
4317;SDS011;2172;53.576;9.934;2022-07-30T01:40:37;9.83;;;5.27;;
4317;SDS011;2172;53.576;9.934;2022-07-30T01:43:06;8.87;;;5.33;;
4317;SDS011;2172;53.576;9.934;2022-07-30T01:45:34;6.60;;;5.33;;
4317;SDS011;2172;53.576;9.934;2022-07-30T01:48:03;6.50;;;4.80;;
4317;SDS011;2172;53.576;9.934;2022-07-30T01:50:31;7.20;;;4.87;;
4317;SDS011;2172;53.576;9.934;2022-07-30T01:53:00;6.73;;;4.80;;
4317;SDS011;2172;53.576;9.934;2022-07-30T01:55:31;7.00;;;4.53;;
4317;SDS011;2172;53.576;9.934;2022-07-30T01:58:01;10.93;;;5.20;;
4317;SDS011;2172;53.576;9.934;2022-07-30T02:00:33;10.00;;;4.90;;
4317;SDS011;2172;53.576;9.934;2022-07-30T02:03:03;6.13;;;4.50;;
4317;SDS011;2172;53.576;9.934;2022-07-30T02:05:34;7.07;;;4.80;;
4317;SDS011;2172;53.576;9.934;2022-07-30T02:08:04;7.90;;;4.47;;
4317;SDS011;2172;53.576;9.934;2022-07-30T02:10:35;9.03;;;5.17;;
4317;SDS011;2172;53.576;9.934;2022-07-30T02:13:13;7.40;;;5.07;;
4317;SDS011;2172;53.576;9.934;2022-07-30T02:15:44;7.50;;;4.83;;
4317;SDS011;2172;53.576;9.934;2022-07-30T02:18:16;15.80;;;5.13;;
4317;SDS011;2172;53.576;9.934;2022-07-30T02:20:47;5.30;;;4.80;;
4317;SDS011;2172;53.576;9.934;2022-07-30T02:23:19;5.77;;;5.20;;
4317;SDS011;2172;53.576;9.934;2022-07-30T02:25:50;5.83;;;4.33;;
4317;SDS011;2172;53.576;9.934;2022-07-30T02:28:20;5.37;;;4.90;;
4317;SDS011;2172;53.576;9.934;2022-07-30T02:30:50;7.67;;;5.33;;
4317;SDS011;2172;53.576;9.934;2022-07-30T02:33:20;8.70;;;5.00;;
4317;SDS011;2172;53.576;9.934;2022-07-30T02:35:49;6.13;;;4.90;;
4317;SDS011;2172;53.576;9.934;2022-07-30T02:38:17;9.33;;;5.00;;
4317;SDS011;2172;53.576;9.934;2022-07-30T02:40:45;8.03;;;4.90;;
4317;SDS011;2172;53.576;9.934;2022-07-30T02:43:13;6.30;;;4.33;;
4317;SDS011;2172;53.576;9.934;2022-07-30T02:45:41;8.67;;;5.10;;
4317;SDS011;2172;53.576;9.934;2022-07-30T02:48:11;9.37;;;4.40;;
4317;SDS011;2172;53.576;9.934;2022-07-30T02:50:40;7.20;;;5.13;;
4317;SDS011;2172;53.576;9.934;2022-07-30T02:53:08;7.07;;;4.70;;
4317;SDS011;2172;53.576;9.934;2022-07-30T02:55:38;6.10;;;4.40;;
4317;SDS011;2172;53.576;9.934;2022-07-30T02:58:07;7.20;;;5.27;;
4317;SDS011;2172;53.576;9.934;2022-07-30T03:00:35;8.77;;;4.73;;
4317;SDS011;2172;53.576;9.934;2022-07-30T03:03:03;7.87;;;5.17;;
4317;SDS011;2172;53.576;9.934;2022-07-30T03:05:37;5.80;;;4.70;;
4317;SDS011;2172;53.576;9.934;2022-07-30T03:08:05;6.60;;;5.23;;
4317;SDS011;2172;53.576;9.934;2022-07-30T03:10:33;7.43;;;5.40;;
4317;SDS011;2172;53.576;9.934;2022-07-30T03:13:03;7.00;;;4.23;;
4317;SDS011;2172;53.576;9.934;2022-07-30T03:15:32;10.77;;;4.70;;
4317;SDS011;2172;53.576;9.934;2022-07-30T03:18:03;11.33;;;5.00;;
4317;SDS011;2172;53.576;9.934;2022-07-30T03:20:32;7.20;;;5.00;;
4317;SDS011;2172;53.576;9.934;2022-07-30T03:23:01;6.70;;;4.87;;
4317;SDS011;2172;53.576;9.934;2022-07-30T03:25:30;10.57;;;4.97;;
4317;SDS011;2172;53.576;9.934;2022-07-30T03:27:59;6.50;;;5.00;;
4317;SDS011;2172;53.576;9.934;2022-07-30T03:30:28;5.57;;;4.70;;
4317;SDS011;2172;53.576;9.934;2022-07-30T03:32:56;6.63;;;4.80;;
4317;SDS011;2172;53.576;9.934;2022-07-30T03:35:24;6.60;;;4.97;;
4317;SDS011;2172;53.576;9.934;2022-07-30T03:37:53;5.03;;;4.23;;
4317;SDS011;2172;53.576;9.934;2022-07-30T03:40:22;5.50;;;4.80;;
4317;SDS011;2172;53.576;9.934;2022-07-30T03:42:50;5.07;;;4.67;;
4317;SDS011;2172;53.576;9.934;2022-07-30T03:45:21;7.27;;;4.60;;
4317;SDS011;2172;53.576;9.934;2022-07-30T03:47:52;5.80;;;4.90;;
4317;SDS011;2172;53.576;9.934;2022-07-30T03:50:22;8.77;;;5.43;;
4317;SDS011;2172;53.576;9.934;2022-07-30T03:52:50;12.17;;;5.53;;
4317;SDS011;2172;53.576;9.934;2022-07-30T03:55:18;5.17;;;4.67;;
4317;SDS011;2172;53.576;9.934;2022-07-30T03:57:50;7.60;;;5.17;;
4317;SDS011;2172;53.576;9.934;2022-07-30T04:00:23;9.63;;;5.10;;
4317;SDS011;2172;53.576;9.934;2022-07-30T04:02:51;8.77;;;5.40;;
4317;SDS011;2172;53.576;9.934;2022-07-30T04:05:25;9.40;;;5.20;;
4317;SDS011;2172;53.576;9.934;2022-07-30T04:07:57;6.17;;;5.00;;
4317;SDS011;2172;53.576;9.934;2022-07-30T04:10:26;7.17;;;4.73;;
4317;SDS011;2172;53.576;9.934;2022-07-30T04:12:57;6.23;;;4.87;;
4317;SDS011;2172;53.576;9.934;2022-07-30T04:15:27;12.30;;;5.43;;
4317;SDS011;2172;53.576;9.934;2022-07-30T04:17:57;4.90;;;4.40;;
4317;SDS011;2172;53.576;9.934;2022-07-30T04:20:29;6.00;;;4.90;;
4317;SDS011;2172;53.576;9.934;2022-07-30T04:22:58;8.90;;;5.37;;
4317;SDS011;2172;53.576;9.934;2022-07-30T04:25:26;7.37;;;5.33;;
4317;SDS011;2172;53.576;9.934;2022-07-30T04:27:53;6.67;;;4.77;;
4317;SDS011;2172;53.576;9.934;2022-07-30T04:30:23;8.27;;;4.53;;
4317;SDS011;2172;53.576;9.934;2022-07-30T04:32:50;5.03;;;4.27;;
4317;SDS011;2172;53.576;9.934;2022-07-30T04:35:50;7.47;;;4.63;;
4317;SDS011;2172;53.576;9.934;2022-07-30T04:38:24;7.80;;;4.97;;
4317;SDS011;2172;53.576;9.934;2022-07-30T04:40:53;4.97;;;4.47;;
4317;SDS011;2172;53.576;9.934;2022-07-30T04:43:21;6.57;;;4.77;;
4317;SDS011;2172;53.576;9.934;2022-07-30T04:45:50;5.13;;;4.63;;
4317;SDS011;2172;53.576;9.934;2022-07-30T04:48:17;5.87;;;4.80;;
4317;SDS011;2172;53.576;9.934;2022-07-30T04:50:52;6.13;;;4.67;;
4317;SDS011;2172;53.576;9.934;2022-07-30T04:53:22;6.20;;;5.40;;
4317;SDS011;2172;53.576;9.934;2022-07-30T04:55:54;5.13;;;4.60;;
4317;SDS011;2172;53.576;9.934;2022-07-30T04:58:25;4.93;;;4.17;;
4317;SDS011;2172;53.576;9.934;2022-07-30T05:00:55;5.57;;;4.20;;
4317;SDS011;2172;53.576;9.934;2022-07-30T05:03:28;10.23;;;4.87;;
4317;SDS011;2172;53.576;9.934;2022-07-30T05:05:56;4.90;;;4.50;;
4317;SDS011;2172;53.576;9.934;2022-07-30T05:08:28;4.77;;;4.37;;
4317;SDS011;2172;53.576;9.934;2022-07-30T05:10:57;4.57;;;4.17;;
4317;SDS011;2172;53.576;9.934;2022-07-30T05:13:24;4.73;;;4.37;;
4317;SDS011;2172;53.576;9.934;2022-07-30T05:15:52;5.80;;;5.20;;
4317;SDS011;2172;53.576;9.934;2022-07-30T05:18:21;9.70;;;4.90;;
4317;SDS011;2172;53.576;9.934;2022-07-30T05:20:48;5.73;;;4.40;;
4317;SDS011;2172;53.576;9.934;2022-07-30T05:23:22;5.00;;;4.50;;
4317;SDS011;2172;53.576;9.934;2022-07-30T05:26:06;11.03;;;5.00;;
4317;SDS011;2172;53.576;9.934;2022-07-30T05:28:39;5.70;;;4.70;;
4317;SDS011;2172;53.576;9.934;2022-07-30T05:31:10;4.73;;;4.23;;
4317;SDS011;2172;53.576;9.934;2022-07-30T05:33:39;5.03;;;4.53;;
4317;SDS011;2172;53.576;9.934;2022-07-30T05:36:08;6.90;;;4.80;;
4317;SDS011;2172;53.576;9.934;2022-07-30T05:38:38;6.17;;;4.80;;
4317;SDS011;2172;53.576;9.934;2022-07-30T05:41:25;7.50;;;4.63;;
4317;SDS011;2172;53.576;9.934;2022-07-30T05:44:13;4.00;;;3.70;;
4317;SDS011;2172;53.576;9.934;2022-07-30T05:46:41;6.00;;;4.70;;
4317;SDS011;2172;53.576;9.934;2022-07-30T05:49:10;5.60;;;4.47;;
4317;SDS011;2172;53.576;9.934;2022-07-30T05:51:39;5.60;;;4.33;;
4317;SDS011;2172;53.576;9.934;2022-07-30T05:54:07;9.27;;;4.40;;
4317;SDS011;2172;53.576;9.934;2022-07-30T05:57:04;5.07;;;3.97;;
4317;SDS011;2172;53.576;9.934;2022-07-30T05:59:35;4.60;;;4.20;;
4317;SDS011;2172;53.576;9.934;2022-07-30T06:02:25;6.33;;;4.97;;
4317;SDS011;2172;53.576;9.934;2022-07-30T06:05:23;7.13;;;4.77;;
4317;SDS011;2172;53.576;9.934;2022-07-30T06:07:52;5.37;;;4.53;;
4317;SDS011;2172;53.576;9.934;2022-07-30T06:10:21;5.37;;;4.77;;
4317;SDS011;2172;53.576;9.934;2022-07-30T06:12:49;7.07;;;4.70;;
4317;SDS011;2172;53.576;9.934;2022-07-30T06:15:17;6.07;;;4.53;;
4317;SDS011;2172;53.576;9.934;2022-07-30T06:17:46;6.00;;;4.50;;
4317;SDS011;2172;53.576;9.934;2022-07-30T06:20:27;11.00;;;4.57;;
4317;SDS011;2172;53.576;9.934;2022-07-30T06:23:08;6.53;;;4.73;;
4317;SDS011;2172;53.576;9.934;2022-07-30T06:25:55;6.30;;;4.57;;
4317;SDS011;2172;53.576;9.934;2022-07-30T06:28:22;5.80;;;4.50;;
4317;SDS011;2172;53.576;9.934;2022-07-30T06:30:50;6.87;;;4.83;;
4317;SDS011;2172;53.576;9.934;2022-07-30T06:33:23;5.77;;;4.40;;
4317;SDS011;2172;53.576;9.934;2022-07-30T06:35:52;5.70;;;4.70;;
4317;SDS011;2172;53.576;9.934;2022-07-30T06:38:24;4.67;;;4.07;;
4317;SDS011;2172;53.576;9.934;2022-07-30T06:41:01;5.20;;;4.80;;
4317;SDS011;2172;53.576;9.934;2022-07-30T06:43:46;8.50;;;6.07;;
4317;SDS011;2172;53.576;9.934;2022-07-30T06:46:38;7.00;;;5.47;;
4317;SDS011;2172;53.576;9.934;2022-07-30T06:49:05;6.47;;;4.93;;
4317;SDS011;2172;53.576;9.934;2022-07-30T06:51:35;6.03;;;4.80;;
4317;SDS011;2172;53.576;9.934;2022-07-30T06:54:02;7.57;;;4.10;;
4317;SDS011;2172;53.576;9.934;2022-07-30T06:56:48;4.97;;;4.33;;
4317;SDS011;2172;53.576;9.934;2022-07-30T06:59:17;4.90;;;4.40;;
4317;SDS011;2172;53.576;9.934;2022-07-30T07:02:07;5.47;;;4.97;;
4317;SDS011;2172;53.576;9.934;2022-07-30T07:04:53;6.10;;;5.60;;
4317;SDS011;2172;53.576;9.934;2022-07-30T07:07:22;9.10;;;7.90;;
4317;SDS011;2172;53.576;9.934;2022-07-30T07:09:49;9.17;;;6.90;;
4317;SDS011;2172;53.576;9.934;2022-07-30T07:12:43;7.07;;;5.43;;
4317;SDS011;2172;53.576;9.934;2022-07-30T07:15:13;7.23;;;4.93;;
4317;SDS011;2172;53.576;9.934;2022-07-30T07:17:41;9.53;;;5.40;;
4317;SDS011;2172;53.576;9.934;2022-07-30T07:20:29;6.90;;;5.20;;
4317;SDS011;2172;53.576;9.934;2022-07-30T07:23:03;8.07;;;5.00;;
4317;SDS011;2172;53.576;9.934;2022-07-30T07:25:31;8.30;;;5.50;;
4317;SDS011;2172;53.576;9.934;2022-07-30T07:27:59;5.57;;;5.03;;
4317;SDS011;2172;53.576;9.934;2022-07-30T07:30:28;6.33;;;5.43;;
4317;SDS011;2172;53.576;9.934;2022-07-30T07:32:55;9.00;;;5.50;;
4317;SDS011;2172;53.576;9.934;2022-07-30T07:35:23;6.80;;;5.53;;
4317;SDS011;2172;53.576;9.934;2022-07-30T07:37:51;5.40;;;4.90;;
4317;SDS011;2172;53.576;9.934;2022-07-30T07:40:22;7.03;;;5.67;;
4317;SDS011;2172;53.576;9.934;2022-07-30T07:42:50;8.90;;;5.10;;
4317;SDS011;2172;53.576;9.934;2022-07-30T07:45:18;9.67;;;5.53;;
4317;SDS011;2172;53.576;9.934;2022-07-30T07:47:51;10.23;;;5.70;;
4317;SDS011;2172;53.576;9.934;2022-07-30T07:50:33;8.50;;;7.50;;
4317;SDS011;2172;53.576;9.934;2022-07-30T07:53:02;7.33;;;5.50;;
4317;SDS011;2172;53.576;9.934;2022-07-30T07:55:31;6.83;;;5.23;;
4317;SDS011;2172;53.576;9.934;2022-07-30T07:57:59;6.47;;;5.70;;
4317;SDS011;2172;53.576;9.934;2022-07-30T08:00:27;8.20;;;6.10;;
4317;SDS011;2172;53.576;9.934;2022-07-30T08:02:55;10.27;;;5.70;;
4317;SDS011;2172;53.576;9.934;2022-07-30T08:05:22;7.07;;;5.43;;
4317;SDS011;2172;53.576;9.934;2022-07-30T08:07:57;8.87;;;6.47;;
4317;SDS011;2172;53.576;9.934;2022-07-30T08:10:44;7.60;;;6.77;;
4317;SDS011;2172;53.576;9.934;2022-07-30T08:13:38;7.43;;;6.70;;
4317;SDS011;2172;53.576;9.934;2022-07-30T08:16:23;7.90;;;7.10;;
4317;SDS011;2172;53.576;9.934;2022-07-30T08:19:09;7.13;;;6.43;;
4317;SDS011;2172;53.576;9.934;2022-07-30T08:21:40;7.47;;;5.83;;
4317;SDS011;2172;53.576;9.934;2022-07-30T08:24:07;9.80;;;6.17;;
4317;SDS011;2172;53.576;9.934;2022-07-30T08:26:36;7.07;;;6.37;;
4317;SDS011;2172;53.576;9.934;2022-07-30T08:29:04;10.50;;;7.47;;
4317;SDS011;2172;53.576;9.934;2022-07-30T08:31:32;8.70;;;6.70;;
4317;SDS011;2172;53.576;9.934;2022-07-30T08:34:00;10.33;;;7.10;;
4317;SDS011;2172;53.576;9.934;2022-07-30T08:36:28;10.60;;;7.30;;
4317;SDS011;2172;53.576;9.934;2022-07-30T08:38:55;9.80;;;6.30;;
4317;SDS011;2172;53.576;9.934;2022-07-30T08:41:23;12.80;;;7.00;;
4317;SDS011;2172;53.576;9.934;2022-07-30T08:43:52;7.90;;;6.93;;
4317;SDS011;2172;53.576;9.934;2022-07-30T08:46:21;10.13;;;7.40;;
4317;SDS011;2172;53.576;9.934;2022-07-30T08:48:58;9.30;;;6.17;;
4317;SDS011;2172;53.576;9.934;2022-07-30T08:51:26;12.00;;;6.83;;
4317;SDS011;2172;53.576;9.934;2022-07-30T08:54:20;8.77;;;6.77;;
4317;SDS011;2172;53.576;9.934;2022-07-30T08:56:48;10.77;;;7.10;;
4317;SDS011;2172;53.576;9.934;2022-07-30T08:59:17;5.90;;;5.30;;
4317;SDS011;2172;53.576;9.934;2022-07-30T09:01:45;7.90;;;6.50;;
4317;SDS011;2172;53.576;9.934;2022-07-30T09:04:14;8.87;;;5.40;;
4317;SDS011;2172;53.576;9.934;2022-07-30T09:06:42;6.83;;;5.40;;
4317;SDS011;2172;53.576;9.934;2022-07-30T09:09:10;9.80;;;7.33;;
4317;SDS011;2172;53.576;9.934;2022-07-30T09:11:39;11.80;;;6.70;;
4317;SDS011;2172;53.576;9.934;2022-07-30T09:14:07;6.90;;;5.40;;
4317;SDS011;2172;53.576;9.934;2022-07-30T09:16:36;10.10;;;6.50;;
4317;SDS011;2172;53.576;9.934;2022-07-30T09:19:11;7.50;;;5.57;;
4317;SDS011;2172;53.576;9.934;2022-07-30T09:21:40;8.30;;;6.00;;
4317;SDS011;2172;53.576;9.934;2022-07-30T09:24:19;10.70;;;6.93;;
4317;SDS011;2172;53.576;9.934;2022-07-30T09:27:22;15.13;;;6.70;;
4317;SDS011;2172;53.576;9.934;2022-07-30T09:30:15;10.97;;;7.00;;
4317;SDS011;2172;53.576;9.934;2022-07-30T09:33:03;7.87;;;7.10;;
4317;SDS011;2172;53.576;9.934;2022-07-30T09:36:03;7.80;;;7.00;;
4317;SDS011;2172;53.576;9.934;2022-07-30T09:39:10;8.93;;;7.30;;
4317;SDS011;2172;53.576;9.934;2022-07-30T09:41:56;7.87;;;6.87;;
4317;SDS011;2172;53.576;9.934;2022-07-30T09:44:24;7.63;;;6.37;;
4317;SDS011;2172;53.576;9.934;2022-07-30T09:46:55;11.57;;;6.43;;
4317;SDS011;2172;53.576;9.934;2022-07-30T09:49:33;7.70;;;6.50;;
4317;SDS011;2172;53.576;9.934;2022-07-30T09:52:02;8.23;;;7.47;;
4317;SDS011;2172;53.576;9.934;2022-07-30T09:54:46;12.33;;;7.40;;
4317;SDS011;2172;53.576;9.934;2022-07-30T09:57:15;6.87;;;6.00;;
4317;SDS011;2172;53.576;9.934;2022-07-30T09:59:43;6.93;;;6.10;;
4317;SDS011;2172;53.576;9.934;2022-07-30T10:02:10;7.47;;;6.77;;
4317;SDS011;2172;53.576;9.934;2022-07-30T10:05:08;7.87;;;6.90;;
4317;SDS011;2172;53.576;9.934;2022-07-30T10:07:36;7.50;;;6.50;;
4317;SDS011;2172;53.576;9.934;2022-07-30T10:10:04;7.43;;;6.67;;
4317;SDS011;2172;53.576;9.934;2022-07-30T10:12:34;9.87;;;7.30;;
4317;SDS011;2172;53.576;9.934;2022-07-30T10:15:02;7.10;;;6.47;;
4317;SDS011;2172;53.576;9.934;2022-07-30T10:17:31;11.67;;;6.63;;
4317;SDS011;2172;53.576;9.934;2022-07-30T10:20:20;8.43;;;6.70;;
4317;SDS011;2172;53.576;9.934;2022-07-30T10:23:23;7.00;;;6.40;;
4317;SDS011;2172;53.576;9.934;2022-07-30T10:26:12;7.67;;;6.43;;
4317;SDS011;2172;53.576;9.934;2022-07-30T10:28:58;7.50;;;6.50;;
4317;SDS011;2172;53.576;9.934;2022-07-30T10:31:26;7.60;;;6.80;;
4317;SDS011;2172;53.576;9.934;2022-07-30T10:33:53;7.20;;;6.50;;
4317;SDS011;2172;53.576;9.934;2022-07-30T10:36:22;9.43;;;6.13;;
4317;SDS011;2172;53.576;9.934;2022-07-30T10:38:50;8.40;;;6.27;;
4317;SDS011;2172;53.576;9.934;2022-07-30T10:41:23;8.10;;;6.40;;
4317;SDS011;2172;53.576;9.934;2022-07-30T10:46:48;7.97;;;6.23;;
4317;SDS011;2172;53.576;9.934;2022-07-30T10:49:27;6.40;;;5.77;;
4317;SDS011;2172;53.576;9.934;2022-07-30T10:51:56;6.20;;;5.60;;
4317;SDS011;2172;53.576;9.934;2022-07-30T10:54:37;7.13;;;6.30;;
4317;SDS011;2172;53.576;9.934;2022-07-30T10:57:06;10.00;;;6.40;;
4317;SDS011;2172;53.576;9.934;2022-07-30T11:02:38;9.50;;;6.63;;
4317;SDS011;2172;53.576;9.934;2022-07-30T11:05:22;9.20;;;6.03;;
4317;SDS011;2172;53.576;9.934;2022-07-30T11:07:51;6.63;;;5.90;;
4317;SDS011;2172;53.576;9.934;2022-07-30T11:13:11;8.20;;;5.60;;
4317;SDS011;2172;53.576;9.934;2022-07-30T11:15:51;7.63;;;6.50;;
4317;SDS011;2172;53.576;9.934;2022-07-30T11:18:22;7.57;;;6.03;;
4317;SDS011;2172;53.576;9.934;2022-07-30T11:23:42;6.67;;;5.00;;
4317;SDS011;2172;53.576;9.934;2022-07-30T11:26:11;5.50;;;5.00;;
4317;SDS011;2172;53.576;9.934;2022-07-30T11:34:51;5.90;;;5.40;;
4317;SDS011;2172;53.576;9.934;2022-07-30T11:37:18;7.73;;;5.10;;
4317;SDS011;2172;53.576;9.934;2022-07-30T11:42:35;5.60;;;4.93;;
4317;SDS011;2172;53.576;9.934;2022-07-30T11:45:18;5.47;;;4.93;;
4317;SDS011;2172;53.576;9.934;2022-07-30T11:47:55;7.17;;;5.20;;
4317;SDS011;2172;53.576;9.934;2022-07-30T11:50:25;7.93;;;4.83;;
4317;SDS011;2172;53.576;9.934;2022-07-30T11:52:54;5.90;;;4.83;;
4317;SDS011;2172;53.576;9.934;2022-07-30T11:55:25;6.60;;;4.80;;
4317;SDS011;2172;53.576;9.934;2022-07-30T11:57:54;6.40;;;5.17;;
4317;SDS011;2172;53.576;9.934;2022-07-30T12:00:22;4.40;;;4.00;;
4317;SDS011;2172;53.576;9.934;2022-07-30T12:02:50;8.13;;;4.90;;
4317;SDS011;2172;53.576;9.934;2022-07-30T12:05:22;5.33;;;4.30;;
4317;SDS011;2172;53.576;9.934;2022-07-30T12:07:55;7.20;;;5.27;;
4317;SDS011;2172;53.576;9.934;2022-07-30T12:10:24;8.30;;;4.67;;
4317;SDS011;2172;53.576;9.934;2022-07-30T12:12:52;5.03;;;4.60;;
4317;SDS011;2172;53.576;9.934;2022-07-30T12:15:28;5.67;;;4.90;;
4317;SDS011;2172;53.576;9.934;2022-07-30T12:17:59;5.67;;;5.03;;
4317;SDS011;2172;53.576;9.934;2022-07-30T12:20:27;7.40;;;4.90;;
4317;SDS011;2172;53.576;9.934;2022-07-30T12:22:55;4.97;;;4.57;;
4317;SDS011;2172;53.576;9.934;2022-07-30T12:25:24;9.23;;;5.03;;
4317;SDS011;2172;53.576;9.934;2022-07-30T12:27:52;5.03;;;4.53;;
4317;SDS011;2172;53.576;9.934;2022-07-30T12:30:19;5.87;;;5.03;;
4317;SDS011;2172;53.576;9.934;2022-07-30T12:32:48;5.00;;;4.50;;
4317;SDS011;2172;53.576;9.934;2022-07-30T12:35:16;5.07;;;4.67;;
4317;SDS011;2172;53.576;9.934;2022-07-30T12:40:28;5.67;;;5.07;;
4317;SDS011;2172;53.576;9.934;2022-07-30T12:42:56;5.80;;;5.37;;
4317;SDS011;2172;53.576;9.934;2022-07-30T12:45:30;8.30;;;5.90;;
4317;SDS011;2172;53.576;9.934;2022-07-30T12:47:58;5.37;;;4.87;;
4317;SDS011;2172;53.576;9.934;2022-07-30T12:50:27;7.97;;;5.83;;
4317;SDS011;2172;53.576;9.934;2022-07-30T12:52:55;5.70;;;4.80;;
4317;SDS011;2172;53.576;9.934;2022-07-30T12:55:33;7.37;;;5.87;;
4317;SDS011;2172;53.576;9.934;2022-07-30T12:58:02;7.20;;;5.50;;
4317;SDS011;2172;53.576;9.934;2022-07-30T13:00:31;7.80;;;5.30;;
4317;SDS011;2172;53.576;9.934;2022-07-30T13:03:18;7.17;;;5.50;;
4317;SDS011;2172;53.576;9.934;2022-07-30T13:05:47;6.70;;;5.73;;
4317;SDS011;2172;53.576;9.934;2022-07-30T13:08:15;10.10;;;5.30;;
4317;SDS011;2172;53.576;9.934;2022-07-30T13:10:54;6.00;;;5.30;;
4317;SDS011;2172;53.576;9.934;2022-07-30T13:13:22;6.70;;;6.10;;
4317;SDS011;2172;53.576;9.934;2022-07-30T13:15:56;6.00;;;5.50;;
4317;SDS011;2172;53.576;9.934;2022-07-30T13:18:26;10.27;;;6.20;;
4317;SDS011;2172;53.576;9.934;2022-07-30T13:20:53;6.67;;;5.80;;
4317;SDS011;2172;53.576;9.934;2022-07-30T13:23:21;7.43;;;5.47;;
4317;SDS011;2172;53.576;9.934;2022-07-30T13:25:48;9.70;;;5.80;;
4317;SDS011;2172;53.576;9.934;2022-07-30T13:28:17;9.83;;;5.50;;
4317;SDS011;2172;53.576;9.934;2022-07-30T13:30:45;6.80;;;5.60;;
4317;SDS011;2172;53.576;9.934;2022-07-30T13:33:13;8.30;;;5.40;;
4317;SDS011;2172;53.576;9.934;2022-07-30T13:35:40;8.03;;;5.67;;
4317;SDS011;2172;53.576;9.934;2022-07-30T13:38:08;6.83;;;6.23;;
4317;SDS011;2172;53.576;9.934;2022-07-30T13:40:37;6.33;;;5.73;;
4317;SDS011;2172;53.576;9.934;2022-07-30T13:43:05;8.23;;;5.73;;
4317;SDS011;2172;53.576;9.934;2022-07-30T13:45:34;7.20;;;5.03;;
4317;SDS011;2172;53.576;9.934;2022-07-30T13:48:02;6.87;;;6.17;;
4317;SDS011;2172;53.576;9.934;2022-07-30T13:50:29;8.07;;;5.57;;
4317;SDS011;2172;53.576;9.934;2022-07-30T13:52:57;6.43;;;5.77;;
4317;SDS011;2172;53.576;9.934;2022-07-30T13:55:25;6.93;;;6.23;;
4317;SDS011;2172;53.576;9.934;2022-07-30T13:57:53;8.27;;;6.00;;
4317;SDS011;2172;53.576;9.934;2022-07-30T14:00:20;6.20;;;5.17;;
4317;SDS011;2172;53.576;9.934;2022-07-30T14:02:50;9.40;;;8.37;;
4317;SDS011;2172;53.576;9.934;2022-07-30T14:05:18;7.97;;;5.30;;
4317;SDS011;2172;53.576;9.934;2022-07-30T14:07:46;9.73;;;5.90;;
4317;SDS011;2172;53.576;9.934;2022-07-30T14:10:13;5.67;;;5.27;;
4317;SDS011;2172;53.576;9.934;2022-07-30T14:12:41;8.17;;;6.00;;
4317;SDS011;2172;53.576;9.934;2022-07-30T14:15:09;6.23;;;5.17;;
4317;SDS011;2172;53.576;9.934;2022-07-30T14:17:36;6.33;;;5.07;;
4317;SDS011;2172;53.576;9.934;2022-07-30T14:20:06;6.10;;;5.00;;
4317;SDS011;2172;53.576;9.934;2022-07-30T14:22:33;5.70;;;5.20;;
4317;SDS011;2172;53.576;9.934;2022-07-30T14:25:01;6.37;;;5.10;;
4317;SDS011;2172;53.576;9.934;2022-07-30T14:27:29;6.00;;;5.50;;
4317;SDS011;2172;53.576;9.934;2022-07-30T14:29:56;7.90;;;5.30;;
4317;SDS011;2172;53.576;9.934;2022-07-30T14:32:23;5.70;;;5.10;;
4317;SDS011;2172;53.576;9.934;2022-07-30T14:34:51;9.10;;;5.90;;
4317;SDS011;2172;53.576;9.934;2022-07-30T14:37:20;5.17;;;4.40;;
4317;SDS011;2172;53.576;9.934;2022-07-30T14:39:48;5.30;;;4.70;;
4317;SDS011;2172;53.576;9.934;2022-07-30T14:42:15;7.20;;;5.80;;
4317;SDS011;2172;53.576;9.934;2022-07-30T14:44:44;8.30;;;5.17;;
4317;SDS011;2172;53.576;9.934;2022-07-30T14:47:12;4.97;;;4.50;;
4317;SDS011;2172;53.576;9.934;2022-07-30T14:49:39;5.93;;;5.30;;
4317;SDS011;2172;53.576;9.934;2022-07-30T14:52:07;7.50;;;5.20;;
4317;SDS011;2172;53.576;9.934;2022-07-30T14:54:36;4.90;;;4.40;;
4317;SDS011;2172;53.576;9.934;2022-07-30T14:57:03;9.40;;;4.63;;
4317;SDS011;2172;53.576;9.934;2022-07-30T14:59:32;6.03;;;4.53;;
4317;SDS011;2172;53.576;9.934;2022-07-30T15:02:00;5.43;;;4.63;;
4317;SDS011;2172;53.576;9.934;2022-07-30T15:04:28;5.77;;;5.10;;
4317;SDS011;2172;53.576;9.934;2022-07-30T15:06:55;7.37;;;5.07;;
4317;SDS011;2172;53.576;9.934;2022-07-30T15:09:23;5.40;;;4.87;;
4317;SDS011;2172;53.576;9.934;2022-07-30T15:11:51;12.63;;;5.37;;
4317;SDS011;2172;53.576;9.934;2022-07-30T15:14:19;5.27;;;4.77;;
4317;SDS011;2172;53.576;9.934;2022-07-30T15:16:47;9.43;;;5.57;;
4317;SDS011;2172;53.576;9.934;2022-07-30T15:19:14;6.50;;;5.10;;
4317;SDS011;2172;53.576;9.934;2022-07-30T15:21:41;5.60;;;5.10;;
4317;SDS011;2172;53.576;9.934;2022-07-30T15:24:09;7.63;;;5.60;;
4317;SDS011;2172;53.576;9.934;2022-07-30T15:26:36;6.67;;;5.30;;
4317;SDS011;2172;53.576;9.934;2022-07-30T15:29:05;5.47;;;4.83;;
4317;SDS011;2172;53.576;9.934;2022-07-30T15:31:33;5.33;;;4.83;;
4317;SDS011;2172;53.576;9.934;2022-07-30T15:34:00;5.23;;;4.73;;
4317;SDS011;2172;53.576;9.934;2022-07-30T15:36:27;5.67;;;4.60;;
4317;SDS011;2172;53.576;9.934;2022-07-30T15:38:55;5.13;;;4.20;;
4317;SDS011;2172;53.576;9.934;2022-07-30T15:41:22;5.57;;;4.70;;
4317;SDS011;2172;53.576;9.934;2022-07-30T15:43:50;5.27;;;4.77;;
4317;SDS011;2172;53.576;9.934;2022-07-30T15:46:19;5.03;;;4.63;;
4317;SDS011;2172;53.576;9.934;2022-07-30T15:48:46;5.67;;;4.30;;
4317;SDS011;2172;53.576;9.934;2022-07-30T15:51:13;7.97;;;4.83;;
4317;SDS011;2172;53.576;9.934;2022-07-30T15:53:41;4.83;;;4.33;;
4317;SDS011;2172;53.576;9.934;2022-07-30T15:56:08;5.60;;;5.07;;
4317;SDS011;2172;53.576;9.934;2022-07-30T15:58:36;6.00;;;5.30;;
4317;SDS011;2172;53.576;9.934;2022-07-30T16:01:03;6.00;;;5.40;;
4317;SDS011;2172;53.576;9.934;2022-07-30T16:03:32;8.20;;;6.60;;